Time;durP1;ratioP1;P1;durP2;ratioP2;P2;SDS_P1;SDS_P2;PMS_P1;PMS_P2;Temp;Humidity;BMP_temperature;BMP_pressure;BME280_temperature;BME280_humidity;BME280_pressure;Samples;Min_cycle;Max_cycle;Signal;HPM_P1;HPM_P2
2022/10/01 00:00:19;;;;;;;279.60;129.77;;;;;;;;;;5022687;28;20190;-53
2022/10/01 00:02:45;;;;;;;255.23;118.27;;;;;;;;;;5020768;28;20267;-53
2022/10/01 00:05:11;;;;;;;315.33;142.50;;;9.10;99.90;;;;;;5021473;28;20902;-53
2022/10/01 00:07:42;;;;;;;342.53;153.70;;;9.10;99.90;;;;;;5023578;28;20515;-53
2022/10/01 00:10:09;;;;;;;278.60;128.40;;;9.00;99.90;;;;;;5016450;28;20268;-54
2022/10/01 00:12:36;;;;;;;283.63;129.80;;;8.90;99.90;;;;;;5015613;28;20203;-54
2022/10/01 00:15:02;;;;;;;283.93;129.87;;;;;;;;;;5024122;28;20204;-54
2022/10/01 00:17:28;;;;;;;314.73;138.10;;;8.80;99.90;;;;;;5023625;28;20408;-54
2022/10/01 00:19:54;;;;;;;331.80;143.17;;;;;;;;;;5017808;28;20577;-54
2022/10/01 00:22:20;;;;;;;320.03;137.43;;;;;;;;;;5019363;28;20185;-53
2022/10/01 00:24:46;;;;;;;333.07;141.77;;;8.70;99.90;;;;;;5020427;28;20208;-53
2022/10/01 00:27:12;;;;;;;353.10;153.37;;;8.80;99.90;;;;;;5017539;28;20184;-53
2022/10/01 00:29:39;;;;;;;371.63;156.07;;;8.90;99.90;;;;;;5019483;28;20192;-53
2022/10/01 00:32:05;;;;;;;354.37;147.60;;;;;;;;;;5011737;28;20249;-53
2022/10/01 00:34:31;;;;;;;400.33;167.07;;;;;;;;;;5018060;28;20696;-53
2022/10/01 00:36:57;;;;;;;353.93;150.80;;;;;;;;;;5017221;28;20263;-53
2022/10/01 00:39:23;;;;;;;348.43;146.60;;;;;;;;;;5019699;28;20202;-53
2022/10/01 00:41:50;;;;;;;331.30;140.27;;;;;;;;;;5005938;28;20178;-53
2022/10/01 00:44:36;;;;;;;372.57;156.97;;;8.80;99.90;;;;;;5015065;28;20207;-53
2022/10/01 00:47:31;;;;;;;339.07;144.13;;;8.80;99.90;;;;;;5005537;28;20200;-53
2022/10/01 00:50:15;;;;;;;372.93;156.47;;;8.70;99.90;;;;;;5014140;28;20603;-54
2022/10/01 00:52:44;;;;;;;338.30;146.27;;;8.70;99.90;;;;;;5010505;28;20904;-53
2022/10/01 00:55:14;;;;;;;387.10;162.93;;;8.60;99.90;;;;;;5010590;28;20266;-53
2022/10/01 00:57:42;;;;;;;399.50;167.90;;;8.70;99.90;;;;;;5006994;28;20195;-53
2022/10/01 01:00:11;;;;;;;365.57;155.93;;;8.60;99.90;;;;;;5009930;28;20180;-53
2022/10/01 01:02:37;;;;;;;384.83;161.30;;;;;;;;;;5009142;28;20899;-54
2022/10/01 01:05:03;;;;;;;365.77;156.07;;;8.40;99.90;;;;;;5012682;28;20228;-53
2022/10/01 01:07:30;;;;;;;338.30;143.63;;;8.30;99.90;;;;;;5014516;28;20286;-53
2022/10/01 01:09:56;;;;;;;405.53;170.67;;;7.70;99.90;;;;;;5012597;28;20185;-53
2022/10/01 01:12:35;;;;;;;356.40;149.33;;;8.60;99.90;;;;;;5015072;28;20657;-53
2022/10/01 01:15:16;;;;;;;348.37;148.13;;;8.70;99.90;;;;;;5006606;28;20207;-53
2022/10/01 01:17:57;;;;;;;417.53;175.93;;;8.40;99.90;;;;;;5007069;28;20191;-53
2022/10/01 01:20:44;;;;;;;338.77;145.57;;;8.40;99.90;;;;;;5009672;28;20187;-53
2022/10/01 01:23:16;;;;;;;368.27;156.73;;;8.40;99.90;;;;;;5011199;28;20184;-53
2022/10/01 01:26:41;;;;;;;387.00;165.13;;;8.40;99.90;;;;;;5011675;28;20247;-53
2022/10/01 01:29:20;;;;;;;379.67;161.57;;;8.30;99.90;;;;;;4972827;28;20662;-54
2022/10/01 01:31:47;;;;;;;341.37;144.73;;;8.40;99.90;;;;;;4974146;28;20201;-54
2022/10/01 01:34:18;;;;;;;361.33;153.43;;;8.40;99.90;;;;;;4995612;28;20660;-53
2022/10/01 01:36:48;;;;;;;365.83;156.40;;;8.20;99.90;;;;;;5014881;28;20271;-53
2022/10/01 01:39:17;;;;;;;359.00;151.87;;;8.20;99.90;;;;;;5014054;28;20195;-53
2022/10/01 01:41:52;;;;;;;374.90;157.50;;;8.30;99.90;;;;;;5010801;28;20185;-53
2022/10/01 01:44:23;;;;;;;357.43;153.40;;;8.20;99.90;;;;;;5002171;28;20431;-54
2022/10/01 01:46:50;;;;;;;346.87;145.47;;;8.30;99.90;;;;;;5003671;28;20179;-53
2022/10/01 01:49:19;;;;;;;359.87;152.07;;;8.20;99.90;;;;;;5010201;28;20199;-53
2022/10/01 01:51:52;;;;;;;389.53;163.53;;;8.20;99.90;;;;;;5007434;28;20179;-53
2022/10/01 01:54:19;;;;;;;347.83;146.67;;;;;;;;;;5009405;28;20208;-53
2022/10/01 01:56:45;;;;;;;412.73;171.87;;;8.20;99.90;;;;;;5006160;28;20633;-53
2022/10/01 01:59:12;;;;;;;348.93;145.67;;;8.20;99.90;;;;;;5009934;28;20192;-53
2022/10/01 02:01:40;;;;;;;347.27;146.47;;;8.00;99.90;;;;;;5012268;28;20532;-53
2022/10/01 02:04:30;;;;;;;343.83;142.47;;;8.10;99.90;;;;;;5004325;28;20834;-53
2022/10/01 02:07:14;;;;;;;308.13;130.53;;;8.00;99.90;;;;;;5003418;28;20181;-53
2022/10/01 02:10:01;;;;;;;346.90;146.33;;;7.90;99.90;;;;;;5014699;28;20393;-53
2022/10/01 02:12:29;;;;;;;407.50;166.60;;;;;;;;;;5009025;28;20216;-53
2022/10/01 02:15:35;;;;;;;371.37;153.97;;;7.90;99.90;;;;;;5009593;28;20405;-53
2022/10/01 02:18:21;;;;;;;345.53;145.23;;;8.70;99.90;;;;;;4996260;28;20188;-53
2022/10/01 02:20:55;;;;;;;320.63;135.33;;;7.70;99.90;;;;;;5015386;28;20211;-53
2022/10/01 02:24:04;;;;;;;350.10;146.80;;;7.80;99.90;;;;;;5015742;28;20184;-53
2022/10/01 02:26:31;;;;;;;336.33;141.43;;;7.70;99.90;;;;;;5003589;28;20224;-53
2022/10/01 02:29:02;;;;;;;329.33;137.07;;;7.70;99.90;;;;;;5010172;28;20176;-54
2022/10/01 02:31:29;;;;;;;341.47;142.23;;;7.80;99.90;;;;;;5015522;28;20200;-53
2022/10/01 02:33:58;;;;;;;394.50;164.07;;;7.80;99.90;;;;;;5015401;28;20231;-53
2022/10/01 02:36:25;;;;;;;389.57;160.37;;;8.00;99.90;;;;;;5006977;28;20292;-53
2022/10/01 02:38:52;;;;;;;373.20;154.23;;;7.70;99.90;;;;;;5018557;28;20172;-53
2022/10/01 02:41:23;;;;;;;376.87;157.17;;;7.70;99.90;;;;;;5016138;28;20204;-53
2022/10/01 02:43:58;;;;;;;351.50;145.80;;;7.80;99.90;;;;;;5015908;28;20544;-53
2022/10/01 02:46:35;;;;;;;355.53;148.20;;;8.10;99.90;;;;;;5018616;28;20245;-53
2022/10/01 02:49:03;;;;;;;382.23;161.40;;;;;;;;;;5010706;28;20186;-54
2022/10/01 02:52:04;;;;;;;336.60;142.53;;;7.60;99.90;;;;;;5014480;28;20181;-53
2022/10/01 02:54:35;;;;;;;398.17;165.13;;;7.70;99.90;;;;;;4990566;28;20272;-53
2022/10/01 02:59:45;;;;;;;376.17;153.63;;;;;;;;;;5014524;28;20382;-53
2022/10/01 03:02:11;;;;;;;284.83;122.23;;;;;;;;;;5009999;28;20564;-53
2022/10/01 03:04:37;;;;;;;408.60;166.77;;;;;;;;;;5015975;28;20479;-53
2022/10/01 03:07:03;;;;;;;343.70;143.27;;;;;;;;;;5006278;28;20176;-53
2022/10/01 03:09:33;;;;;;;416.47;170.60;;;7.70;99.90;;;;;;5009765;28;20637;-54
2022/10/01 03:12:00;;;;;;;340.33;142.10;;;7.70;99.90;;;;;;5013575;28;20176;-53
2022/10/01 03:14:26;;;;;;;361.47;149.70;;;;;;;;;;5008469;28;20406;-53
2022/10/01 03:16:52;;;;;;;380.57;158.53;;;;;;;;;;5006613;28;20700;-53
2022/10/01 03:19:18;;;;;;;366.27;152.17;;;;;;;;;;5012614;28;20192;-53
2022/10/01 03:21:43;;;;;;;334.17;141.67;;;;;;;;;;5013845;28;20258;-53
2022/10/01 03:24:09;;;;;;;407.80;171.70;;;;;;;;;;5008447;28;20551;-53
2022/10/01 03:26:35;;;;;;;360.47;148.33;;;;;;;;;;5015706;28;20184;-53
2022/10/01 03:29:02;;;;;;;373.40;154.30;;;;;;;;;;5014243;28;20192;-53
2022/10/01 03:31:28;;;;;;;387.70;160.43;;;;;;;;;;5006710;28;20371;-53
2022/10/01 03:33:57;;;;;;;337.43;140.47;;;;;;;;;;5018720;28;20370;-53
2022/10/01 03:36:24;;;;;;;390.73;165.13;;;;;;;;;;5010918;28;20625;-53
2022/10/01 03:38:50;;;;;;;347.80;145.27;;;;;;;;;;5017512;28;20603;-53
2022/10/01 03:41:16;;;;;;;361.93;150.53;;;;;;;;;;5008722;28;20195;-53
2022/10/01 03:43:41;;;;;;;386.00;160.40;;;8.00;99.90;;;;;;5008192;28;20192;-53
2022/10/01 03:46:07;;;;;;;380.93;155.67;;;;;;;;;;5004512;28;20620;-53
2022/10/01 03:48:33;;;;;;;384.57;159.17;;;;;;;;;;5011346;28;20189;-53
2022/10/01 03:50:59;;;;;;;343.97;145.07;;;;;;;;;;5010211;28;20467;-53
2022/10/01 03:53:26;;;;;;;363.90;154.37;;;8.00;99.90;;;;;;5009988;28;20216;-53
2022/10/01 03:55:53;;;;;;;344.90;143.17;;;8.00;99.90;;;;;;5011464;28;20201;-53
2022/10/01 03:58:19;;;;;;;311.50;132.73;;;;;;;;;;5012696;28;20188;-53
2022/10/01 04:00:46;;;;;;;401.43;166.87;;;7.90;99.90;;;;;;5003042;28;20650;-53
2022/10/01 04:03:13;;;;;;;352.37;148.20;;;7.90;99.90;;;;;;5014556;28;20275;-53
2022/10/01 04:05:39;;;;;;;417.70;173.60;;;;;;;;;;5009238;28;20695;-53
2022/10/01 04:08:05;;;;;;;326.40;138.57;;;;;;;;;;5014858;28;20188;-53
2022/10/01 04:10:31;;;;;;;429.03;178.30;;;;;;;;;;5014916;28;20841;-53
2022/10/01 04:12:57;;;;;;;348.33;149.13;;;7.90;99.90;;;;;;5017207;28;20215;-53
2022/10/01 04:15:23;;;;;;;360.97;150.47;;;;;;;;;;5007084;28;20206;-54
2022/10/01 04:17:49;;;;;;;332.73;141.63;;;;;;;;;;5014253;28;20176;-53
2022/10/01 04:20:15;;;;;;;362.67;151.37;;;8.00;99.90;;;;;;5009663;28;20556;-53
2022/10/01 04:22:41;;;;;;;380.87;159.67;;;;;;;;;;5017866;28;20188;-53
2022/10/01 04:25:09;;;;;;;329.80;140.57;;;7.90;99.90;;;;;;5009649;28;20211;-53
2022/10/01 04:27:35;;;;;;;364.27;153.43;;;8.00;99.90;;;;;;5011665;28;20331;-53
2022/10/01 04:30:01;;;;;;;345.77;150.63;;;;;;;;;;5015747;28;20204;-53
2022/10/01 04:32:27;;;;;;;356.43;147.57;;;;;;;;;;5011159;28;20332;-53
2022/10/01 04:34:53;;;;;;;339.33;145.07;;;;;;;;;;5007090;28;21295;-53
2022/10/01 04:37:22;;;;;;;336.07;140.37;;;7.90;99.90;;;;;;5014828;28;20185;-53
2022/10/01 04:39:48;;;;;;;334.53;141.57;;;;;;;;;;5012613;28;20870;-53
2022/10/01 04:42:14;;;;;;;330.90;140.20;;;7.90;99.90;;;;;;5008812;28;20180;-53
2022/10/01 04:44:40;;;;;;;352.53;145.80;;;;;;;;;;5008667;28;20271;-53
2022/10/01 04:47:07;;;;;;;401.90;167.20;;;7.90;99.90;;;;;;5005930;28;20188;-53
2022/10/01 04:49:33;;;;;;;350.47;145.90;;;;;;;;;;5010119;28;20199;-53
2022/10/01 04:51:59;;;;;;;382.63;157.10;;;7.80;99.90;;;;;;5011892;28;20185;-53
2022/10/01 04:54:25;;;;;;;355.97;149.07;;;;;;;;;;5001893;28;20228;-53
2022/10/01 04:56:51;;;;;;;347.57;145.53;;;;;;;;;;5013017;28;20420;-53
2022/10/01 04:59:18;;;;;;;380.13;157.60;;;;;;;;;;5008745;28;20646;-53
2022/10/01 05:01:44;;;;;;;410.07;171.27;;;;;;;;;;5005008;28;20222;-53
2022/10/01 05:04:10;;;;;;;339.80;143.03;;;;;;;;;;5009524;28;20416;-53
2022/10/01 05:06:36;;;;;;;351.33;145.97;;;;;;;;;;5015046;28;20184;-53
2022/10/01 05:09:02;;;;;;;478.93;200.40;;;;;;;;;;5012423;28;20197;-53
2022/10/01 05:11:28;;;;;;;381.00;155.70;;;;;;;;;;5006703;28;20275;-53
2022/10/01 05:13:54;;;;;;;358.27;150.10;;;;;;;;;;5007830;28;20283;-53
2022/10/01 05:16:21;;;;;;;373.90;158.23;;;7.90;99.90;;;;;;5012495;28;20204;-53
2022/10/01 05:18:47;;;;;;;393.20;164.30;;;;;;;;;;5003610;28;20188;-53
2022/10/01 05:21:14;;;;;;;337.67;141.13;;;7.80;99.90;;;;;;5009945;28;20519;-53
2022/10/01 05:23:40;;;;;;;340.83;142.90;;;7.90;99.90;;;;;;5017343;28;20184;-53
2022/10/01 05:26:07;;;;;;;346.27;145.63;;;;;;;;;;5015724;28;20226;-53
2022/10/01 05:28:33;;;;;;;335.40;141.37;;;;;;;;;;5010028;28;20207;-53
2022/10/01 05:30:59;;;;;;;406.27;168.33;;;;;;;;;;5003592;28;20186;-53
2022/10/01 05:33:26;;;;;;;388.80;162.80;;;7.90;99.90;;;;;;5011363;28;20742;-54
2022/10/01 05:35:52;;;;;;;380.13;157.70;;;;;;;;;;5013025;28;20250;-53
2022/10/01 05:38:18;;;;;;;386.27;160.83;;;;;;;;;;5013089;28;20468;-53
2022/10/01 05:40:45;;;;;;;340.27;144.23;;;7.90;99.90;;;;;;5005091;28;20646;-53
2022/10/01 05:43:11;;;;;;;339.13;143.57;;;;;;;;;;5006626;28;20184;-53
2022/10/01 05:45:37;;;;;;;424.10;179.30;;;7.80;99.90;;;;;;5011671;28;20207;-53
2022/10/01 05:48:05;;;;;;;359.83;151.93;;;8.00;99.90;;;;;;5008335;28;20643;-54
2022/10/01 05:50:32;;;;;;;352.10;146.30;;;8.00;99.90;;;;;;5007287;28;20199;-55
2022/10/01 05:52:59;;;;;;;332.60;142.17;;;7.90;99.90;;;;;;5012929;28;20310;-55
2022/10/01 05:55:26;;;;;;;365.77;154.43;;;8.10;99.90;;;;;;5012141;28;20200;-55
2022/10/01 05:58:06;;;;;;;367.00;157.07;;;8.10;99.90;;;;;;5002876;28;23112;-54
2022/10/01 06:00:33;;;;;;;337.83;144.80;;;8.20;99.90;;;;;;5017485;28;20267;-54
2022/10/01 06:03:01;;;;;;;338.77;145.73;;;8.20;99.90;;;;;;5020901;28;20188;-54
2022/10/01 06:05:27;;;;;;;365.07;154.27;;;8.10;99.90;;;;;;5015711;28;20611;-54
2022/10/01 06:07:53;;;;;;;383.13;162.73;;;;;;;;;;5016417;28;20279;-54
2022/10/01 06:10:20;;;;;;;365.07;157.13;;;8.40;99.90;;;;;;5010546;28;20191;-54
2022/10/01 06:12:47;;;;;;;337.30;140.90;;;;;;;;;;5006771;28;20356;-54
2022/10/01 06:15:13;;;;;;;379.30;159.40;;;;;;;;;;5013233;28;20208;-54
2022/10/01 06:17:43;;;;;;;461.60;189.73;;;8.40;99.90;;;;;;5006345;28;20180;-54
2022/10/01 06:20:18;;;;;;;370.67;156.07;;;8.50;99.90;;;;;;5018395;28;20176;-54
2022/10/01 06:22:51;;;;;;;354.63;150.13;;;8.50;99.90;;;;;;5014775;28;20667;-55
2022/10/01 06:25:17;;;;;;;317.60;135.13;;;;;;;;;;5018494;28;20566;-54
2022/10/01 06:27:43;;;;;;;360.90;154.20;;;;;;;;;;5010128;28;20397;-54
2022/10/01 06:30:09;;;;;;;446.60;187.27;;;;;;;;;;5002376;28;20561;-54
2022/10/01 06:32:35;;;;;;;362.40;153.47;;;;;;;;;;5010617;28;20193;-54
2022/10/01 06:35:01;;;;;;;369.23;157.67;;;;;;;;;;4988531;28;20233;-54
2022/10/01 06:37:27;;;;;;;483.77;203.53;;;;;;;;;;4952156;28;20229;-55
2022/10/01 06:39:53;;;;;;;380.43;159.97;;;;;;;;;;4967171;28;20622;-55
2022/10/01 06:42:19;;;;;;;323.70;139.07;;;;;;;;;;4972485;28;20276;-54
2022/10/01 06:44:45;;;;;;;342.80;145.20;;;;;;;;;;4974173;28;20222;-55
2022/10/01 06:47:11;;;;;;;372.60;157.17;;;;;;;;;;4970956;28;20209;-55
2022/10/01 06:49:37;;;;;;;366.30;157.07;;;;;;;;;;4974344;28;20255;-55
2022/10/01 06:54:48;;;;;;;450.50;176.00;;;;;;;;;;4961722;28;22534;-55
2022/10/01 06:57:14;;;;;;;359.47;146.70;;;;;;;;;;4966421;28;20186;-55
2022/10/01 06:59:40;;;;;;;404.70;156.67;;;;;;;;;;4961677;28;20222;-55
2022/10/01 07:02:06;;;;;;;471.87;179.00;;;;;;;;;;4973123;28;20209;-54
2022/10/01 07:04:32;;;;;;;400.17;170.70;;;;;;;;;;4971694;28;20693;-55
2022/10/01 07:06:57;;;;;;;348.83;147.37;;;;;;;;;;4973139;28;20288;-54
2022/10/01 07:09:24;;;;;;;381.70;159.83;;;9.20;99.90;;;;;;4963255;28;20175;-55
2022/10/01 07:11:51;;;;;;;379.53;160.27;;;;;;;;;;4959569;28;20224;-54
2022/10/01 07:14:17;;;;;;;409.37;170.20;;;;;;;;;;4955265;28;20229;-55
2022/10/01 07:16:43;;;;;;;403.50;172.07;;;;;;;;;;4963831;28;20208;-54
2022/10/01 07:19:09;;;;;;;429.90;179.87;;;9.50;99.90;;;;;;4962388;28;20216;-55
2022/10/01 07:21:35;;;;;;;332.67;140.93;;;;;;;;;;4972731;28;20186;-55
2022/10/01 07:24:01;;;;;;;326.67;139.43;;;;;;;;;;4981036;28;20196;-55
2022/10/01 07:26:27;;;;;;;350.13;147.47;;;;;;;;;;4981655;28;20225;-55
2022/10/01 07:28:54;;;;;;;338.73;142.63;;;;;;;;;;4973734;28;20221;-55
2022/10/01 07:31:19;;;;;;;369.63;156.97;;;10.00;99.90;;;;;;4972082;28;20579;-55
2022/10/01 07:33:46;;;;;;;380.13;159.43;;;;;;;;;;4972114;28;20342;-55
2022/10/01 07:36:12;;;;;;;337.37;141.47;;;;;;;;;;4977360;28;20194;-55
2022/10/01 07:38:38;;;;;;;378.30;158.97;;;;;;;;;;4974382;28;20273;-55
2022/10/01 07:41:04;;;;;;;351.40;150.13;;;;;;;;;;4981674;28;20221;-55
2022/10/01 07:43:31;;;;;;;366.43;153.93;;;10.40;99.90;;;;;;4970000;28;20219;-55
2022/10/01 07:45:58;;;;;;;360.63;154.53;;;;;;;;;;4953861;28;20402;-55
2022/10/01 07:48:25;;;;;;;372.30;158.07;;;;;;;;;;4969262;28;20327;-55
2022/10/01 07:50:51;;;;;;;354.47;149.00;;;;;;;;;;4966922;28;20214;-55
2022/10/01 07:53:17;;;;;;;362.30;154.40;;;;;;;;;;4969194;28;20218;-53
2022/10/01 07:55:43;;;;;;;465.33;197.90;;;;;;;;;;4976432;28;20293;-53
2022/10/01 07:58:10;;;;;;;385.80;164.27;;;11.40;99.90;;;;;;4980416;28;20268;-54
2022/10/01 08:00:37;;;;;;;417.93;180.90;;;11.90;99.90;;;;;;4966172;28;20739;-53
2022/10/01 08:03:03;;;;;;;355.63;153.80;;;;;;;;;;4959267;28;20186;-54
2022/10/01 08:05:32;;;;;;;385.80;165.03;;;11.70;83.40;;;;;;4967619;28;20288;-54
2022/10/01 08:08:05;;;;;;;432.60;185.30;;;11.80;54.10;;;;;;4970974;28;20209;-54
2022/10/01 08:10:35;;;;;;;398.07;165.93;;;11.80;53.20;;;;;;4969737;28;20729;-55
2022/10/01 08:13:23;;;;;;;365.73;155.50;;;9.60;23.20;;;;;;4965115;28;20741;-55
2022/10/01 08:15:52;;;;;;;354.70;152.20;;;;;;;;;;4969011;28;20284;-55
2022/10/01 08:18:18;;;;;;;420.00;178.23;;;;;;;;;;4967176;28;20189;-55
2022/10/01 08:20:44;;;;;;;354.40;152.73;;;;;;;;;;4962851;28;20224;-55
2022/10/01 08:23:12;;;;;;;380.37;165.03;;;11.70;43.70;;;;;;4967304;28;20574;-55
2022/10/01 08:25:38;;;;;;;540.17;230.73;;;;;;;;;;4955342;28;20861;-55
2022/10/01 08:28:05;;;;;;;381.40;169.23;;;11.90;37.40;;;;;;4960075;28;20518;-55
2022/10/01 08:30:31;;;;;;;409.73;178.03;;;;;;;;;;4959620;28;20268;-55
2022/10/01 08:32:58;;;;;;;453.13;192.80;;;11.90;26.80;;;;;;4962841;28;20214;-55
2022/10/01 08:35:25;;;;;;;408.20;175.83;;;11.80;12.60;;;;;;4960843;28;20618;-54
2022/10/01 08:37:51;;;;;;;412.10;163.43;;;;;;;;;;4970247;28;20220;-55
2022/10/01 08:40:19;;;;;;;435.13;172.33;;;12.10;13.60;;;;;;4965461;28;20284;-55
2022/10/01 08:42:46;;;;;;;394.37;175.47;;;;;;;;;;4968389;28;20185;-54
2022/10/01 08:45:16;;;;;;;378.43;164.20;;;12.10;1.00;;;;;;4973531;28;20669;-55
2022/10/01 08:47:50;;;;;;;441.73;191.37;;;12.10;1.00;;;;;;4963993;28;20229;-55
2022/10/01 08:50:33;;;;;;;463.80;199.97;;;12.10;1.00;;;;;;4971953;28;20365;-55
2022/10/01 08:53:03;;;;;;;414.87;180.00;;;12.20;1.00;;;;;;4962009;28;20228;-55
2022/10/01 08:55:35;;;;;;;463.17;200.87;;;14.10;1.00;;;;;;4963724;28;20587;-55
2022/10/01 08:58:08;;;;;;;427.77;186.53;;;12.20;1.00;;;;;;4971771;28;20217;-55
2022/10/01 09:00:39;;;;;;;401.47;175.23;;;12.30;1.00;;;;;;4973663;28;20273;-55
2022/10/01 09:03:06;;;;;;;375.63;162.33;;;12.30;1.00;;;;;;4979734;28;20420;-55
2022/10/01 09:05:50;;;;;;;372.77;159.70;;;12.40;1.00;;;;;;4979950;28;20301;-55
2022/10/01 09:08:44;;;;;;;391.20;169.83;;;12.40;1.00;;;;;;4981583;28;20399;-55
2022/10/01 09:11:47;;;;;;;363.57;156.67;;;12.40;1.00;;;;;;4977439;28;20678;-55
2022/10/01 09:14:12;;;;;;;331.07;144.40;;;;;;;;;;4977894;28;20369;-55
2022/10/01 09:17:02;;;;;;;352.53;150.57;;;12.30;1.00;;;;;;4980264;28;20252;-55
2022/10/01 09:19:44;;;;;;;370.70;159.10;;;12.40;1.00;;;;;;4976105;28;20205;-55
2022/10/01 09:22:19;;;;;;;379.83;165.17;;;11.70;1.00;;;;;;4976949;28;20682;-55
2022/10/01 09:24:52;;;;;;;373.13;161.83;;;12.60;1.00;;;;;;4978780;28;20639;-55
2022/10/01 09:27:24;;;;;;;357.03;154.00;;;12.70;1.00;;;;;;4981698;28;20177;-55
2022/10/01 09:29:55;;;;;;;382.10;164.60;;;15.40;1.00;;;;;;4983801;28;20297;-55
2022/10/01 09:32:29;;;;;;;357.73;156.97;;;12.80;1.00;;;;;;4981278;28;20295;-55
2022/10/01 09:34:55;;;;;;;345.23;151.07;;;;;;;;;;4987744;28;20225;-54
2022/10/01 09:37:21;;;;;;;371.70;161.03;;;;;;;;;;4984253;28;20296;-55
2022/10/01 09:40:18;;;;;;;365.47;161.80;;;13.10;1.00;;;;;;4985166;28;20198;-55
2022/10/01 09:42:44;;;;;;;371.33;162.40;;;;;;;;;;4978775;28;20646;-55
2022/10/01 09:45:17;;;;;;;380.30;165.77;;;13.50;99.90;;;;;;4977942;28;20209;-55
2022/10/01 09:47:50;;;;;;;367.90;160.83;;;13.90;99.90;;;;;;4976714;28;20259;-55
2022/10/01 09:50:26;;;;;;;392.93;173.80;;;13.60;99.90;;;;;;4984369;28;20241;-55
2022/10/01 09:52:54;;;;;;;395.80;178.20;;;13.60;1.00;;;;;;4982537;28;20223;-55
2022/10/01 09:55:50;;;;;;;401.63;178.57;;;13.80;1.00;;;;;;4977257;28;20217;-55
2022/10/01 09:58:22;;;;;;;386.53;172.40;;;13.90;99.90;;;;;;4965450;28;20309;-55
2022/10/01 10:00:50;;;;;;;359.93;161.77;;;;;;;;;;4973218;28;20186;-55
2022/10/01 10:03:51;;;;;;;353.27;160.13;;;14.10;99.90;;;;;;4971517;28;20676;-55
2022/10/01 10:06:26;;;;;;;370.70;167.57;;;14.10;1.00;;;;;;4953300;28;20229;-55
2022/10/01 10:08:54;;;;;;;333.87;149.60;;;;;;;;;;4976466;28;20216;-55
2022/10/01 10:11:25;;;;;;;344.67;149.93;;;14.10;55.90;;;;;;4972220;28;20221;-55
2022/10/01 10:13:54;;;;;;;388.50;175.70;;;14.30;99.90;;;;;;4979805;28;20225;-55
2022/10/01 10:16:27;;;;;;;360.63;160.53;;;14.40;1.00;;;;;;4983432;28;20401;-55
2022/10/01 10:18:56;;;;;;;384.83;174.93;;;14.50;1.00;;;;;;4987214;28;20221;-55
2022/10/01 10:21:32;;;;;;;354.07;160.20;;;14.60;1.00;;;;;;4982508;28;20208;-55
2022/10/01 10:24:01;;;;;;;356.77;161.53;;;14.70;1.00;;;;;;4987630;28;20261;-55
2022/10/01 10:26:32;;;;;;;368.03;167.60;;;14.70;99.90;;;;;;4984012;28;20309;-55
2022/10/01 10:29:01;;;;;;;349.77;157.43;;;14.70;99.90;;;;;;4984593;28;20237;-55
2022/10/01 10:31:34;;;;;;;362.23;159.90;;;14.50;99.90;;;;;;4983420;28;20313;-55
2022/10/01 10:34:15;;;;;;;359.97;163.63;;;14.60;99.90;;;;;;4983424;28;20313;-55
2022/10/01 10:36:43;;;;;;;373.13;170.17;;;14.50;99.90;;;;;;4979227;28;20246;-55
2022/10/01 10:39:23;;;;;;;392.77;179.30;;;14.50;99.90;;;;;;4982125;28;20184;-55
2022/10/01 10:41:50;;;;;;;362.57;166.30;;;14.60;93.40;;;;;;4981425;28;20645;-55
2022/10/01 10:44:21;;;;;;;373.90;169.20;;;14.70;1.00;;;;;;4984228;28;20225;-55
2022/10/01 10:46:47;;;;;;;354.37;161.10;;;;;;;;;;4983952;28;20210;-55
2022/10/01 10:49:26;;;;;;;365.27;165.20;;;14.40;1.00;;;;;;4971761;28;20225;-55
2022/10/01 10:51:55;;;;;;;442.27;200.27;;;14.40;99.90;;;;;;4966295;28;20186;-55
2022/10/01 10:54:30;;;;;;;459.83;208.47;;;14.50;99.90;;;;;;4962972;28;20315;-54
2022/10/01 10:57:02;;;;;;;379.80;167.93;;;14.40;6.00;;;;;;4969778;28;20217;-55
2022/10/01 10:59:32;;;;;;;380.23;171.63;;;14.40;1.00;;;;;;4975205;28;20571;-55
2022/10/01 11:02:00;;;;;;;399.93;184.50;;;14.60;41.40;;;;;;4970511;28;20442;-55
2022/10/01 11:04:36;;;;;;;430.10;195.30;;;14.70;1.00;;;;;;4967248;28;20232;-55
2022/10/01 11:07:03;;;;;;;361.73;166.67;;;;;;;;;;4967892;28;20713;-55
2022/10/01 11:09:42;;;;;;;451.17;190.73;;;14.80;1.00;;;;;;4975760;28;20617;-55
2022/10/01 11:12:17;;;;;;;364.63;164.43;;;14.90;99.90;;;;;;4971002;28;20217;-55
2022/10/01 11:14:58;;;;;;;411.93;188.97;;;14.90;1.00;;;;;;4975116;28;20225;-54
2022/10/01 11:17:24;;;;;;;481.80;236.80;;;;;;;;;;4952908;28;20813;-55
2022/10/01 11:20:04;;;;;;;374.83;165.07;;;14.90;99.90;;;;;;4962367;28;20236;-55
2022/10/01 11:22:42;;;;;;;391.23;175.87;;;14.70;99.90;;;;;;4973743;28;20235;-55
2022/10/01 11:25:08;;;;;;;444.03;201.40;;;;;;;;;;4968495;28;20213;-55
2022/10/01 11:27:47;;;;;;;423.23;186.67;;;14.60;98.90;;;;;;4971831;28;20192;-52
2022/10/01 11:30:33;;;;;;;401.63;182.93;;;14.40;1.00;;;;;;4973563;28;20185;-52
2022/10/01 11:33:19;;;;;;;395.93;178.67;;;14.40;99.90;;;;;;4975857;28;20214;-55
2022/10/01 11:35:54;;;;;;;398.57;177.27;;;14.30;99.90;;;;;;4966354;28;20218;-55
2022/10/01 11:38:36;;;;;;;421.43;194.83;;;14.10;1.00;;;;;;4977325;28;20260;-55
2022/10/01 11:41:37;;;;;;;362.57;168.03;;;14.10;1.00;;;;;;4977895;28;20214;-55
2022/10/01 11:44:23;;;;;;;379.17;173.17;;;14.00;1.00;;;;;;4974654;28;20224;-55
2022/10/01 11:47:00;;;;;;;378.47;172.97;;;13.80;1.00;;;;;;4973491;28;20561;-55
2022/10/01 11:49:26;;;;;;;329.93;150.33;;;;;;;;;;4969026;28;20281;-55
2022/10/01 11:52:09;;;;;;;364.27;165.67;;;13.80;1.00;;;;;;4976578;28;20182;-55
2022/10/01 11:54:41;;;;;;;406.83;179.27;;;13.60;1.00;;;;;;4971051;28;20222;-55
2022/10/01 12:00:06;;;;;;;441.23;192.03;;;13.40;45.30;;;;;;4970052;28;20216;-55
2022/10/01 12:02:57;;;;;;;397.90;174.07;;;13.20;95.20;;;;;;4976188;28;21865;-55
2022/10/01 12:05:30;;;;;;;423.87;185.63;;;13.20;99.90;;;;;;4961085;28;20218;-55
2022/10/01 12:08:20;;;;;;;348.47;154.53;;;13.30;99.90;;;;;;4976874;28;20271;-55
2022/10/01 12:10:57;;;;;;;426.97;185.67;;;13.00;99.90;;;;;;4973124;28;20417;-55
2022/10/01 12:13:33;;;;;;;319.93;143.37;;;12.90;99.90;;;;;;4968329;28;20324;-55
2022/10/01 12:16:06;;;;;;;405.50;177.30;;;12.80;99.90;;;;;;4964068;28;20882;-55
2022/10/01 12:18:53;;;;;;;375.43;166.67;;;12.80;99.90;;;;;;4969647;28;20214;-55
2022/10/01 12:21:28;;;;;;;381.50;167.83;;;12.70;99.90;;;;;;4978831;28;20248;-55
2022/10/01 12:24:00;;;;;;;400.17;174.67;;;12.60;99.90;;;;;;4968140;28;20220;-54
2022/10/01 12:26:38;;;;;;;394.60;169.60;;;12.70;99.90;;;;;;4973303;28;20583;-55
2022/10/01 12:29:24;;;;;;;385.87;165.40;;;12.60;99.90;;;;;;4969445;28;20217;-55
2022/10/01 12:31:52;;;;;;;373.20;159.63;;;12.70;99.90;;;;;;4975364;28;20276;-55
2022/10/01 12:34:35;;;;;;;358.03;156.97;;;12.60;99.90;;;;;;4966894;28;20416;-52
2022/10/01 12:37:25;;;;;;;386.80;168.23;;;12.70;99.90;;;;;;4974286;28;20256;-55
2022/10/01 12:40:02;;;;;;;383.93;165.57;;;14.70;99.90;;;;;;4970795;28;20189;-55
2022/10/01 12:43:01;;;;;;;405.00;175.20;;;12.90;99.90;;;;;;4967540;28;20208;-54
2022/10/01 12:45:50;;;;;;;405.50;171.90;;;12.70;99.90;;;;;;4970393;28;20417;-55
2022/10/01 12:48:24;;;;;;;394.60;170.50;;;12.80;99.90;;;;;;4966761;28;20741;-54
2022/10/01 12:51:14;;;;;;;375.20;164.73;;;12.80;99.90;;;;;;4968571;28;20300;-54
2022/10/01 12:54:04;;;;;;;361.13;154.23;;;12.70;99.90;;;;;;4974691;28;20767;-55
2022/10/01 12:56:32;;;;;;;443.90;191.37;;;;;;;;;;4969826;28;20630;-55
2022/10/01 12:59:25;;;;;;;387.67;170.93;;;12.50;99.90;;;;;;4972431;28;20323;-55
2022/10/01 13:02:06;;;;;;;436.30;188.70;;;12.50;99.90;;;;;;4968258;28;20660;-55
2022/10/01 13:04:40;;;;;;;373.23;160.87;;;12.40;99.90;;;;;;4974374;28;20295;-55
2022/10/01 13:07:06;;;;;;;404.80;176.63;;;;;;;;;;4971012;28;20220;-55
2022/10/01 13:09:54;;;;;;;442.73;188.17;;;12.30;99.90;;;;;;4974332;28;20189;-54
2022/10/01 13:12:58;;;;;;;359.70;153.33;;;12.10;99.90;;;;;;4960435;28;20337;-55
2022/10/01 13:15:33;;;;;;;395.63;168.23;;;12.20;99.90;;;;;;4951081;28;20413;-54
2022/10/01 13:18:11;;;;;;;405.10;172.77;;;12.20;99.90;;;;;;4948510;28;20683;-54